Time;durP1;ratioP1;P1;durP2;ratioP2;P2;SDS_P1;SDS_P2;PMS_P1;PMS_P2;Temp;Humidity;BMP_temperature;BMP_pressure;BME280_temperature;BME280_humidity;BME280_pressure;Samples;Min_cycle;Max_cycle;Signal;HPM_P1;HPM_P2
2023/07/21 00:00:37;;;;;;;8.18;4.60;;;;;;;;;;4862625;29;20053;-84
2023/07/21 00:03:25;;;;;;;11.85;5.88;;;;;;;;;;4874072;29;20049;-83
2023/07/21 00:06:26;;;;;;;9.00;4.70;;;;;;;;;;4849593;29;20436;-84
2023/07/21 00:09:12;;;;;;;9.45;4.65;;;;;;;;;;4861530;29;20392;-83
2023/07/21 00:11:58;;;;;;;10.48;4.65;;;;;;;;;;4868296;29;20049;-84
2023/07/21 00:14:43;;;;;;;9.60;3.90;;;;;;;;;;4866981;29;20049;-83
2023/07/21 00:17:29;;;;;;;7.03;4.20;;;;;;;;;;4873025;29;20053;-83
2023/07/21 00:20:19;;;;;;;8.25;3.90;;;;;;;;;;4876698;29;20049;-84
2023/07/21 00:23:05;;;;;;;8.23;3.75;;;;;;;;;;4860971;29;20420;-83
2023/07/21 00:26:02;;;;;;;7.75;4.05;;;;;;;;;;4862326;29;20480;-85
2023/07/21 00:28:48;;;;;;;7.20;4.15;;;;;;;;;;4862136;29;20045;-84
2023/07/21 00:31:35;;;;;;;8.35;3.85;;;;;;;;;;4854465;29;20053;-83
2023/07/21 00:34:24;;;;;;;6.20;3.90;;;;;;;;;;4861069;29;20045;-84
2023/07/21 00:37:12;;;;;;;9.30;3.80;;;;;;;;;;4866635;29;20053;-83
2023/07/21 00:40:03;;;;;;;7.63;4.15;;;;;;;;;;4866867;29;20484;-84
2023/07/21 00:42:50;;;;;;;12.45;4.53;;;;;;;;;;4861762;29;20484;-84
2023/07/21 00:45:48;;;;;;;9.00;4.00;;;;;;;;;;4854156;29;20045;-83
2023/07/21 00:48:38;;;;;;;7.68;3.83;;;;;;;;;;4861857;29;20480;-84
2023/07/21 00:51:24;;;;;;;9.45;4.07;;;;;;;;;;4860844;29;20488;-84
2023/07/21 00:54:11;;;;;;;10.63;3.88;;;;;;;;;;4860576;29;20411;-83
2023/07/21 00:56:59;;;;;;;6.63;3.65;;;;;;;;;;4861446;29;20054;-83
2023/07/21 00:59:45;;;;;;;9.30;4.15;;;;;;;;;;4861755;29;20057;-84
2023/07/21 01:02:30;;;;;;;9.52;4.07;;;;;;;;;;4861713;29;20045;-83
2023/07/21 01:05:17;;;;;;;8.27;3.67;;;;;;;;;;4861179;29;20054;-84
2023/07/21 01:08:07;;;;;;;5.47;3.45;;;;;;;;;;4861188;29;20045;-83
2023/07/21 01:10:55;;;;;;;8.68;3.38;;;;;;;;;;4861510;29;20049;-83
2023/07/21 01:13:41;;;;;;;8.23;3.60;;;;;;;;;;4853885;29;20050;-83
2023/07/21 01:16:27;;;;;;;6.20;4.00;;;;;;;;;;4861081;29;20049;-84
2023/07/21 01:19:14;;;;;;;6.47;3.90;;;;;;;;;;4860230;29;20045;-83
2023/07/21 01:22:09;;;;;;;12.05;4.22;;;;;;;;;;4866520;29;20050;-81
2023/07/21 01:24:55;;;;;;;6.90;3.67;;;;;;;;;;4861541;29;20424;-81
2023/07/21 01:27:42;;;;;;;8.18;3.97;;;;;;;;;;4866816;29;20049;-80
2023/07/21 01:30:29;;;;;;;8.70;4.28;;;;;;;;;;4861216;29;20050;-80
2023/07/21 01:33:20;;;;;;;7.93;3.95;;;;;;;;;;4861249;29;20053;-80
2023/07/21 01:36:06;;;;;;;8.35;4.32;;;;;;;;;;4866496;29;20038;-80
2023/07/21 01:38:53;;;;;;;10.63;3.90;;;;;;;;;;4861435;29;20061;-80
2023/07/21 01:41:38;;;;;;;8.63;4.38;;;;;;;;;;4880594;29;20045;-80
2023/07/21 01:44:24;;;;;;;6.93;4.43;;;;;;;;;;4863129;29;20416;-81
2023/07/21 01:47:09;;;;;;;7.15;3.80;;;;;;;;;;4866327;29;20054;-81
2023/07/21 01:49:54;;;;;;;16.40;9.77;;;;;;;;;;4861193;29;20045;-81
2023/07/21 01:52:41;;;;;;;8.90;4.82;;;;;;;;;;4861080;29;20038;-81
2023/07/21 01:55:34;;;;;;;17.63;15.32;;;;;;;;;;4861491;29;20400;-81
2023/07/21 01:58:20;;;;;;;34.40;27.38;;;;;;;;;;4866201;29;20041;-81
2023/07/21 02:01:06;;;;;;;14.80;10.40;;;;;;;;;;4866373;29;20053;-81
2023/07/21 02:03:51;;;;;;;13.88;8.52;;;;;;;;;;4852627;29;20049;-81
2023/07/21 02:06:36;;;;;;;37.13;26.15;;;;;;;;;;4866319;29;20045;-81
2023/07/21 02:09:22;;;;;;;21.73;15.68;;;;;;;;;;4861219;29;20057;-81
2023/07/21 02:12:11;;;;;;;15.95;10.20;;;;;;;;;;4861425;29;20413;-81
2023/07/21 02:15:19;;;;;;;14.00;9.82;;;;;;;;;;4859927;29;20053;-81
2023/07/21 02:18:03;;;;;;;10.57;5.55;;;;;;;;;;4861065;29;20456;-81
2023/07/21 02:20:48;;;;;;;10.48;4.65;;;;;;;;;;4864190;29;20049;-81
2023/07/21 02:23:34;;;;;;;8.90;4.70;;;;;;;;;;4869462;29;20045;-81
2023/07/21 02:26:19;;;;;;;8.48;4.25;;;;;;;;;;4869277;29;20487;-81
2023/07/21 02:29:05;;;;;;;8.48;4.35;;;;;;;;;;4869432;29;20049;-81
2023/07/21 02:31:50;;;;;;;9.90;4.07;;;;;;;;;;4869664;29;20045;-81
2023/07/21 02:34:39;;;;;;;10.07;3.97;;;;;;;;;;4869214;29;20053;-81
2023/07/21 02:37:25;;;;;;;6.40;4.35;;;;;;;;;;4863949;29;20045;-81
2023/07/21 02:40:12;;;;;;;9.93;4.53;;;;;;;;;;4864281;29;20158;-81
2023/07/21 02:42:58;;;;;;;11.02;4.53;;;;;;;;;;4863831;29;20046;-83
2023/07/21 02:45:48;;;;;;;8.65;4.28;;;;;;;;;;4869267;29;20053;-81
2023/07/21 02:48:34;;;;;;;6.25;4.10;;;;;;;;;;4870053;29;20399;-81
2023/07/21 02:51:19;;;;;;;6.38;4.00;;;;;;;;;;4869304;29;20041;-81
2023/07/21 02:54:06;;;;;;;8.60;4.30;;;;;;;;;;4868663;29;20496;-81
2023/07/21 02:56:52;;;;;;;9.80;4.60;;;;;;;;;;4863415;29;20057;-80
2023/07/21 02:59:42;;;;;;;10.55;4.70;;;;;;;;;;4868907;29;20053;-81
2023/07/21 03:02:28;;;;;;;9.90;4.70;;;;;;;;;;4869063;29;20484;-81
2023/07/21 03:05:13;;;;;;;9.85;4.90;;;;;;;;;;4862360;29;20057;-81
2023/07/21 03:08:00;;;;;;;7.15;4.60;;;;;;;;;;4868862;29;20049;-81
2023/07/21 03:10:45;;;;;;;12.73;5.00;;;;;;;;;;4863552;29;20412;-81
2023/07/21 03:13:33;;;;;;;7.57;4.28;;;;;;;;;;4868458;29;20053;-81
2023/07/21 03:16:19;;;;;;;6.70;4.53;;;;;;;;;;4868595;29;20496;-81
2023/07/21 03:19:11;;;;;;;7.28;4.43;;;;;;;;;;4868336;29;20061;-81
2023/07/21 03:22:00;;;;;;;10.82;4.60;;;;;;;;;;4868796;29;20057;-81
2023/07/21 03:24:46;;;;;;;8.02;4.60;;;;;;;;;;4868799;29;20053;-81
2023/07/21 03:27:31;;;;;;;11.00;4.93;;;;;;;;;;4868232;29;20049;-81
2023/07/21 03:30:17;;;;;;;8.38;4.07;;;;;;;;;;4863140;29;20049;-81
2023/07/21 03:33:10;;;;;;;8.52;4.28;;;;;;;;;;4868293;29;20053;-81
2023/07/21 03:36:04;;;;;;;7.90;4.55;;;;;;;;;;4868306;29;20049;-81
2023/07/21 03:38:51;;;;;;;11.45;4.82;;;;;;;;;;4868775;29;20057;-80
2023/07/21 03:41:36;;;;;;;6.40;4.63;;;;;;;;;;4867966;29;20049;-81
2023/07/21 03:44:22;;;;;;;9.15;4.47;;;;;;;;;;4868104;29;20404;-81
2023/07/21 03:47:07;;;;;;;6.97;4.25;;;;;;;;;;4869002;29;20045;-80
2023/07/21 03:49:58;;;;;;;8.43;4.50;;;;;;;;;;4867764;29;20057;-81
2023/07/21 03:52:44;;;;;;;8.23;4.13;;;;;;;;;;4862868;29;20054;-81
2023/07/21 03:55:33;;;;;;;8.45;4.10;;;;;;;;;;4881259;29;20053;-79
2023/07/21 03:58:19;;;;;;;8.07;4.50;;;;;;;;;;4876873;29;20053;-81
2023/07/21 04:01:04;;;;;;;6.75;4.85;;;;;;;;;;4862504;29;20049;-81
2023/07/21 04:03:51;;;;;;;7.00;4.63;;;;;;;;;;4862106;29;20045;-81
2023/07/21 04:06:37;;;;;;;6.63;4.65;;;;;;;;;;4867775;29;20400;-81
2023/07/21 04:09:22;;;;;;;7.50;4.38;;;;;;;;;;4862117;29;20045;-82
2023/07/21 04:12:07;;;;;;;8.88;4.47;;;;;;;;;;4867402;29;20057;-81
2023/07/21 04:14:54;;;;;;;10.65;4.50;;;;;;;;;;4867837;29;20053;-81
2023/07/21 04:17:40;;;;;;;7.63;4.50;;;;;;;;;;4866994;29;20415;-81
2023/07/21 04:20:25;;;;;;;5.20;4.20;;;;;;;;;;4862026;29;20045;-81
2023/07/21 04:23:12;;;;;;;7.60;4.43;;;;;;;;;;4867700;29;20049;-82
2023/07/21 04:25:57;;;;;;;8.98;4.30;;;;;;;;;;4852151;29;20046;-82
2023/07/21 04:28:44;;;;;;;9.45;5.25;;;;;;;;;;4866723;29;20053;-82
2023/07/21 04:31:29;;;;;;;7.35;5.50;;;;;;;;;;4866546;29;20045;-82
2023/07/21 04:34:20;;;;;;;6.75;4.90;;;;;;;;;;4865882;29;20411;-84
2023/07/21 04:37:09;;;;;;;9.07;5.55;;;;;;;;;;4865835;29;20499;-83
2023/07/21 04:39:55;;;;;;;8.63;6.35;;;;;;;;;;4853646;29;20053;-83
2023/07/21 04:42:41;;;;;;;12.90;7.10;;;;;;;;;;4864580;29;20049;-83
2023/07/21 04:45:27;;;;;;;10.38;6.22;;;;;;;;;;4865954;29;20053;-84
2023/07/21 04:48:28;;;;;;;8.77;6.13;;;;;;;;;;4866314;29;20041;-83
2023/07/21 04:51:14;;;;;;;12.70;5.40;;;;;;;;;;4866127;29;20057;-83
2023/07/21 04:54:01;;;;;;;8.00;4.75;;;;;;;;;;4866155;29;20041;-83
2023/07/21 04:56:46;;;;;;;7.47;4.50;;;;;;;;;;4866480;29;20053;-83
2023/07/21 04:59:32;;;;;;;8.32;4.93;;;;;;;;;;4866900;29;20053;-83
2023/07/21 05:02:17;;;;;;;9.55;5.32;;;;;;;;;;4861949;29;20053;-83
2023/07/21 05:05:02;;;;;;;8.15;4.40;;;;;;;;;;4861000;29;20054;-83
2023/07/21 05:07:48;;;;;;;8.80;4.88;;;;;;;;;;4866951;29;20053;-82
2023/07/21 05:10:35;;;;;;;9.75;5.35;;;;;;;;;;4866941;29;20053;-82
2023/07/21 05:13:21;;;;;;;11.00;5.53;;;;;;;;;;4867530;29;20049;-82
2023/07/21 05:16:37;;;;;;;11.63;6.05;;;;;;;;;;4866653;29;20045;-82
2023/07/21 05:19:44;;;;;;;10.20;5.60;;;;;;;;;;4867243;29;20058;-83
2023/07/21 05:22:58;;;;;;;;;;;;;;;;;;4832393;29;20046;-83
2023/07/21 05:25:58;;;;;;;18.23;5.30;;;;;;;;;;4866847;29;19915;-83
2023/07/21 05:28:46;;;;;;;7.13;5.10;;;;;;;;;;4866422;29;20054;-83
2023/07/21 05:31:33;;;;;;;10.30;5.20;;;;;;;;;;4866503;29;20050;-83
2023/07/21 05:34:21;;;;;;;9.13;4.90;;;;;;;;;;4866487;29;20054;-83
2023/07/21 05:37:11;;;;;;;8.32;4.47;;;;;;;;;;4867413;29;20045;-83
2023/07/21 05:39:56;;;;;;;8.07;4.38;;;;;;;;;;4866577;29;20045;-83
2023/07/21 05:42:47;;;;;;;8.48;4.65;;;;;;;;;;4866841;29;20050;-83
2023/07/21 05:45:37;;;;;;;6.07;3.95;;;;;;;;;;4866245;29;20065;-83
2023/07/21 05:48:25;;;;;;;7.28;4.30;;;;;;;;;;4860187;29;20488;-83
2023/07/21 05:51:14;;;;;;;7.68;4.25;;;;;;;;;;4866536;29;20053;-83
2023/07/21 05:54:03;;;;;;;8.98;4.68;;;;;;;;;;4867957;29;20053;-83
2023/07/21 05:56:49;;;;;;;9.75;4.25;;;;;;;;;;4870093;29;20488;-83
2023/07/21 05:59:45;;;;;;;6.15;4.03;;;;;;;;;;4869914;29;20049;-82
2023/07/21 06:02:31;;;;;;;8.20;3.90;;;;;;;;;;4869608;29;20404;-83
2023/07/21 06:05:19;;;;;;;8.75;3.67;;;;;;;;;;4869677;29;20053;-84
2023/07/21 06:08:27;;;;;;;9.93;3.97;;;;;;;;;;4872914;29;20041;-84
2023/07/21 06:11:31;;;;;;;8.10;4.10;;;;;;;;;;4879955;29;20053;-83
2023/07/21 06:14:42;;;;;;;7.40;4.03;;;;;;;;;;4864590;29;20050;-83
2023/07/21 06:17:34;;;;;;;6.70;3.90;;;;;;;;;;4869408;29;20046;-83
2023/07/21 06:20:26;;;;;;;5.25;3.83;;;;;;;;;;4864249;29;20053;-84
2023/07/21 06:23:12;;;;;;;8.02;3.80;;;;;;;;;;4869521;29;20045;-83
2023/07/21 06:25:59;;;;;;;10.60;4.15;;;;;;;;;;4869095;29;20057;-83
2023/07/21 06:28:44;;;;;;;4.63;3.55;;;;;;;;;;4869573;29;20045;-82
2023/07/21 06:31:33;;;;;;;6.70;4.05;;;;;;;;;;4869243;29;20431;-82
2023/07/21 06:34:29;;;;;;;8.57;4.10;;;;;;;;;;4869305;29;20049;-82
2023/07/21 06:37:35;;;;;;;7.80;3.65;;;;;;;;;;4868858;29;20049;-82
2023/07/21 06:40:38;;;;;;;8.27;3.83;;;;;;;;;;4868886;29;20045;-83
2023/07/21 06:43:49;;;;;;;5.22;3.55;;;;;;;;;;4868918;29;20404;-83
2023/07/21 06:46:53;;;;;;;6.90;3.90;;;;;;;;;;4863779;29;20388;-82
2023/07/21 06:49:56;;;;;;;7.80;4.03;;;;;;;;;;4863968;29;20057;-83
2023/07/21 06:52:46;;;;;;;9.93;4.20;;;;;;;;;;4868635;29;20057;-83
2023/07/21 06:55:32;;;;;;;8.23;4.00;;;;;;;;;;4855778;29;20045;-83
2023/07/21 06:58:18;;;;;;;8.30;4.07;;;;;;;;;;4855871;29;20049;-82
2023/07/21 07:01:04;;;;;;;7.70;4.22;;;;;;;;;;4868850;29;20049;-83
2023/07/21 07:03:50;;;;;;;10.40;4.10;;;;;;;;;;4866260;29;20062;-83
2023/07/21 07:06:35;;;;;;;10.23;3.80;;;;;;;;;;4868582;29;20041;-81
2023/07/21 07:09:20;;;;;;;7.65;4.20;;;;;;;;;;4869478;29;20053;-82
2023/07/21 07:12:07;;;;;;;8.77;4.13;;;;;;;;;;4863234;29;20050;-82
2023/07/21 07:14:53;;;;;;;7.80;4.35;;;;;;;;;;4868738;29;20503;-82
2023/07/21 07:17:39;;;;;;;6.63;4.28;;;;;;;;;;4867993;29;20491;-82
2023/07/21 07:20:25;;;;;;;8.90;4.30;;;;;;;;;;4868257;29;20053;-82
2023/07/21 07:23:10;;;;;;;13.35;4.18;;;;;;;;;;4863288;29;20053;-81
2023/07/21 07:25:55;;;;;;;7.10;4.30;;;;;;;;;;4863755;29;20053;-80
2023/07/21 07:28:41;;;;;;;8.32;4.60;;;;;;;;;;4869428;29;20486;-77
2023/07/21 07:31:26;;;;;;;8.98;4.13;;;;;;;;;;4869010;29;20049;-78
2023/07/21 07:34:11;;;;;;;11.50;5.15;;;;;;;;;;4863113;29;20041;-77
2023/07/21 07:36:58;;;;;;;6.70;4.32;;;;;;;;;;4869117;29;20053;-77
2023/07/21 07:39:43;;;;;;;12.30;4.35;;;;;;;;;;4862879;29;20496;-78
2023/07/21 07:42:29;;;;;;;11.95;5.90;;;;;;;;;;4862639;29;20041;-77
2023/07/21 07:45:15;;;;;;;10.02;4.70;;;;;;;;;;4869011;29;20037;-77
2023/07/21 07:48:01;;;;;;;8.18;6.30;;;;;;;;;;4863077;29;20049;-77
2023/07/21 07:50:47;;;;;;;7.68;4.35;;;;;;;;;;4862774;29;20046;-77
2023/07/21 07:53:33;;;;;;;10.23;4.38;;;;;;;;;;4862823;29;20049;-78
2023/07/21 07:56:17;;;;;;;13.82;7.43;;;;;;;;;;4862774;29;20045;-76
2023/07/21 07:59:02;;;;;;;6.95;4.28;;;;;;;;;;4862644;29;20045;-77
2023/07/21 08:01:48;;;;;;;7.90;4.10;;;;;;;;;;4862282;29;20049;-77
2023/07/21 08:04:34;;;;;;;5.28;3.67;;;;;;;;;;4862764;29;20062;-78
2023/07/21 08:07:19;;;;;;;6.70;3.38;;;;;;;;;;4862485;29;20045;-76
2023/07/21 08:10:05;;;;;;;10.02;4.43;;;;;;;;;;4861427;29;20049;-76
2023/07/21 08:12:50;;;;;;;8.82;3.90;;;;;;;;;;4862806;29;20049;-80
2023/07/21 08:15:40;;;;;;;4.78;3.50;;;;;;;;;;4861953;29;20057;-74
2023/07/21 08:18:24;;;;;;;10.93;3.67;;;;;;;;;;4867956;29;20049;-77
2023/07/21 08:21:29;;;;;;;11.65;3.72;;;;;;;;;;4868498;29;20053;-77
2023/07/21 08:24:17;;;;;;;6.00;3.30;;;;;;;;;;4871641;29;20053;-78
2023/07/21 08:27:03;;;;;;;7.30;3.63;;;;;;;;;;4862767;29;20046;-79
2023/07/21 08:29:48;;;;;;;7.18;3.90;;;;;;;;;;4854424;29;20046;-77
2023/07/21 08:32:33;;;;;;;5.18;3.83;;;;;;;;;;4854712;29;20072;-76
2023/07/21 08:35:19;;;;;;;6.43;3.80;;;;;;;;;;4868376;29;20037;-77
2023/07/21 08:38:05;;;;;;;10.73;4.32;;;;;;;;;;4868010;29;20057;-78
2023/07/21 08:40:58;;;;;;;6.85;3.80;;;;;;;;;;4867829;29;20049;-76
2023/07/21 08:43:46;;;;;;;5.65;3.58;;;;;;;;;;4861918;29;20053;-77
2023/07/21 08:46:31;;;;;;;5.07;3.55;;;;;;;;;;4867050;29;20049;-76
2023/07/21 08:49:18;;;;;;;5.43;3.85;;;;;;;;;;4867684;29;20049;-76
2023/07/21 08:52:03;;;;;;;5.25;3.88;;;;;;;;;;4867805;29;20049;-78
2023/07/21 08:54:49;;;;;;;8.88;3.65;;;;;;;;;;4867945;29;20053;-78
2023/07/21 08:57:35;;;;;;;10.35;4.07;;;;;;;;;;4861385;29;20042;-79
2023/07/21 09:00:23;;;;;;;6.10;3.65;;;;;;;;;;4867824;29;20049;-79
2023/07/21 09:03:08;;;;;;;5.60;3.53;;;;;;;;;;4860401;29;20045;-77
2023/07/21 09:05:56;;;;;;;6.28;3.80;;;;;;;;;;4868302;29;20057;-76
2023/07/21 09:08:47;;;;;;;8.10;3.88;;;;;;;;;;4861590;29;20050;-77
2023/07/21 09:11:35;;;;;;;6.25;3.67;;;;;;;;;;4861598;29;20049;-78
2023/07/21 09:14:35;;;;;;;6.20;3.60;;;;;;;;;;4861559;29;20066;-77
2023/07/21 09:17:21;;;;;;;5.80;3.20;;;;;;;;;;4867543;29;20045;-79
2023/07/21 09:20:09;;;;;;;5.95;3.70;;;;;;;;;;4867544;29;20053;-77
2023/07/21 09:22:54;;;;;;;7.13;3.83;;;;;;;;;;4867637;29;20496;-82
2023/07/21 09:25:54;;;;;;;8.50;3.80;;;;;;;;;;4861398;29;20049;-79
2023/07/21 09:28:44;;;;;;;6.18;3.78;;;;;;;;;;4863670;29;20037;-78
2023/07/21 09:31:34;;;;;;;5.78;3.70;;;;;;;;;;4871182;29;20041;-78
2023/07/21 09:34:18;;;;;;;12.20;4.32;;;;;;;;;;4870868;29;20049;-78
2023/07/21 09:37:07;;;;;;;7.68;4.00;;;;;;;;;;4871364;29;20057;-77
2023/07/21 09:39:57;;;;;;;8.43;3.97;;;;;;;;;;4864716;29;20046;-82
2023/07/21 09:42:43;;;;;;;8.60;3.30;;;;;;;;;;4863838;29;20045;-78
2023/07/21 09:45:29;;;;;;;7.20;3.80;;;;;;;;;;4871007;29;20061;-76
2023/07/21 09:48:14;;;;;;;5.90;3.63;;;;;;;;;;4865119;29;20041;-75
2023/07/21 09:51:03;;;;;;;6.15;3.65;;;;;;;;;;4870994;29;20396;-76
2023/07/21 09:53:49;;;;;;;8.77;3.95;;;;;;;;;;4870671;29;20492;-78
2023/07/21 09:56:40;;;;;;;5.93;3.85;;;;;;;;;;4870638;29;20049;-80
2023/07/21 09:59:29;;;;;;;7.18;3.47;;;;;;;;;;4871041;29;20045;-79
2023/07/21 10:02:17;;;;;;;9.23;3.42;;;;;;;;;;4872398;29;20049;-78
2023/07/21 10:05:04;;;;;;;6.60;4.00;;;;;;;;;;4865194;29;20053;-81
2023/07/21 10:07:52;;;;;;;9.60;3.85;;;;;;;;;;4864291;29;20053;-76
2023/07/21 10:10:37;;;;;;;11.38;3.65;;;;;;;;;;4864645;29;20396;-78
2023/07/21 10:13:27;;;;;;;8.73;3.75;;;;;;;;;;4864190;29;20421;-81
2023/07/21 10:16:14;;;;;;;5.82;3.70;;;;;;;;;;4871333;29;20049;-81
2023/07/21 10:19:08;;;;;;;6.95;3.70;;;;;;;;;;4871162;29;20049;-78
2023/07/21 10:21:54;;;;;;;6.13;3.17;;;;;;;;;;4863919;29;20049;-78
2023/07/21 10:24:47;;;;;;;5.75;3.63;;;;;;;;;;4864532;29;20488;-79
2023/07/21 10:27:32;;;;;;;7.47;3.47;;;;;;;;;;4870090;29;20049;-76
2023/07/21 10:30:22;;;;;;;6.00;3.75;;;;;;;;;;4870209;29;20045;-76
2023/07/21 10:33:20;;;;;;;8.52;3.45;;;;;;;;;;4870468;29;20053;-75
2023/07/21 10:36:14;;;;;;;6.85;4.00;;;;;;;;;;4870264;29;20045;-78
2023/07/21 10:39:00;;;;;;;7.70;3.55;;;;;;;;;;4868310;29;20068;-75
2023/07/21 10:41:46;;;;;;;6.13;3.42;;;;;;;;;;4870306;29;20402;-75
2023/07/21 10:44:37;;;;;;;5.70;3.30;;;;;;;;;;4870192;29;20049;-76
2023/07/21 10:47:23;;;;;;;6.75;3.88;;;;;;;;;;4863998;29;20046;-75
2023/07/21 10:50:08;;;;;;;5.40;3.72;;;;;;;;;;4863340;29;20049;-79
2023/07/21 10:52:53;;;;;;;8.88;3.90;;;;;;;;;;4870379;29;20399;-77
2023/07/21 10:55:39;;;;;;;7.65;3.40;;;;;;;;;;4870285;29;20053;-79
2023/07/21 10:58:27;;;;;;;6.32;3.22;;;;;;;;;;4869175;29;20057;-79
2023/07/21 11:01:18;;;;;;;7.65;4.05;;;;;;;;;;4869994;29;20049;-80
2023/07/21 11:04:04;;;;;;;6.97;3.80;;;;;;;;;;4863161;29;20058;-79
2023/07/21 11:06:53;;;;;;;6.45;3.80;;;;;;;;;;4871631;29;20049;-79
2023/07/21 11:09:43;;;;;;;7.63;3.60;;;;;;;;;;4869284;29;20042;-80
2023/07/21 11:12:28;;;;;;;7.28;3.88;;;;;;;;;;4864506;29;20400;-78
2023/07/21 11:15:20;;;;;;;9.25;3.80;;;;;;;;;;4866785;29;20041;-79
2023/07/21 11:18:09;;;;;;;8.38;4.15;;;;;;;;;;4871322;29;20392;-78
2023/07/21 11:20:55;;;;;;;5.50;3.67;;;;;;;;;;4849182;29;20049;-76
2023/07/21 11:23:41;;;;;;;8.85;3.80;;;;;;;;;;4869369;29;20053;-75
2023/07/21 11:26:26;;;;;;;8.30;4.00;;;;;;;;;;4869313;29;20045;-76
2023/07/21 11:29:12;;;;;;;8.52;3.70;;;;;;;;;;4869868;29;20057;-79
2023/07/21 11:31:58;;;;;;;6.72;4.38;;;;;;;;;;4869409;29;20042;-78
2023/07/21 11:34:43;;;;;;;8.48;4.40;;;;;;;;;;4863509;29;20046;-78
2023/07/21 11:37:40;;;;;;;6.45;3.33;;;;;;;;;;4862710;29;20049;-77
2023/07/21 11:40:26;;;;;;;5.45;3.70;;;;;;;;;;4869822;29;20068;-78
2023/07/21 11:43:12;;;;;;;7.63;3.78;;;;;;;;;;4868891;29;20404;-76
2023/07/21 11:46:00;;;;;;;5.60;3.63;;;;;;;;;;4871194;29;20057;-79
2023/07/21 11:48:54;;;;;;;5.75;3.88;;;;;;;;;;4870348;29;20037;-76
2023/07/21 11:51:48;;;;;;;7.68;3.80;;;;;;;;;;4869440;29;20053;-78
2023/07/21 11:54:43;;;;;;;7.35;3.80;;;;;;;;;;4868080;29;20042;-77
2023/07/21 11:57:28;;;;;;;5.00;3.90;;;;;;;;;;4862881;29;20053;-76
2023/07/21 12:00:14;;;;;;;9.20;4.13;;;;;;;;;;4868915;29;20057;-81
2023/07/21 12:03:01;;;;;;;8.90;3.83;;;;;;;;;;4862591;29;20045;-83
2023/07/21 12:05:47;;;;;;;7.25;4.03;;;;;;;;;;4862646;29;20408;-78
2023/07/21 12:08:33;;;;;;;6.68;3.90;;;;;;;;;;4854408;29;20472;-75
2023/07/21 12:11:17;;;;;;;5.78;3.78;;;;;;;;;;4862317;29;20049;-75
2023/07/21 12:14:04;;;;;;;9.27;4.00;;;;;;;;;;4868299;29;20061;-76
2023/07/21 12:16:49;;;;;;;8.20;3.83;;;;;;;;;;4867373;29;20049;-75
2023/07/21 12:19:35;;;;;;;5.57;3.90;;;;;;;;;;4867237;29;20053;-75
2023/07/21 12:22:24;;;;;;;8.07;3.95;;;;;;;;;;4868226;29;20054;-76
2023/07/21 12:25:10;;;;;;;10.13;4.30;;;;;;;;;;4868325;29;20045;-76
2023/07/21 12:27:55;;;;;;;6.25;3.70;;;;;;;;;;4862140;29;20049;-77
2023/07/21 12:30:40;;;;;;;8.20;4.13;;;;;;;;;;4862099;29;20049;-75
2023/07/21 12:33:27;;;;;;;8.18;4.18;;;;;;;;;;4861933;29;20045;-76
2023/07/21 12:36:18;;;;;;;10.10;4.03;;;;;;;;;;4867942;29;20045;-75
2023/07/21 12:39:04;;;;;;;7.15;3.53;;;;;;;;;;4867943;29;20045;-75
2023/07/21 12:41:50;;;;;;;5.25;3.58;;;;;;;;;;4868112;29;20053;-77
2023/07/21 12:44:35;;;;;;;11.13;4.00;;;;;;;;;;4867871;29;20515;-75
2023/07/21 12:47:21;;;;;;;8.82;4.30;;;;;;;;;;4866907;29;20057;-75
2023/07/21 12:50:07;;;;;;;7.35;3.95;;;;;;;;;;4868073;29;20046;-74
2023/07/21 12:52:52;;;;;;;8.38;3.78;;;;;;;;;;4868034;29;20512;-76
2023/07/21 12:55:38;;;;;;;6.90;4.00;;;;;;;;;;4868051;29;20041;-75
2023/07/21 12:58:23;;;;;;;7.13;4.05;;;;;;;;;;4868320;29;20054;-75
2023/07/21 13:01:09;;;;;;;8.27;4.25;;;;;;;;;;4861863;29;20049;-74
2023/07/21 13:03:55;;;;;;;6.68;3.95;;;;;;;;;;4865080;29;20049;-75
2023/07/21 13:06:40;;;;;;;6.15;3.75;;;;;;;;;;4870261;29;20058;-74
2023/07/21 13:09:26;;;;;;;6.22;3.78;;;;;;;;;;4861543;29;20041;-75
2023/07/21 13:12:12;;;;;;;7.35;3.55;;;;;;;;;;4867523;29;20049;-75
2023/07/21 13:14:57;;;;;;;12.30;3.88;;;;;;;;;;4867871;29;20053;-75
2023/07/21 13:17:44;;;;;;;10.57;4.20;;;;;;;;;;4867585;29;20423;-75
2023/07/21 13:20:30;;;;;;;8.38;3.90;;;;;;;;;;4860244;29;20053;-75
2023/07/21 13:23:15;;;;;;;7.38;3.83;;;;;;;;;;4861216;29;20053;-75
2023/07/21 13:26:00;;;;;;;8.25;4.15;;;;;;;;;;4861755;29;20049;-76
2023/07/21 13:28:47;;;;;;;7.85;3.33;;;;;;;;;;4861279;29;20041;-75
2023/07/21 13:31:32;;;;;;;5.00;3.83;;;;;;;;;;4867610;29;20049;-76
2023/07/21 13:34:18;;;;;;;9.10;3.83;;;;;;;;;;4867031;29;20405;-75
2023/07/21 13:37:03;;;;;;;8.63;3.75;;;;;;;;;;4861292;29;20061;-75
2023/07/21 13:39:48;;;;;;;5.00;3.25;;;;;;;;;;4867171;29;20049;-75
2023/07/21 13:42:34;;;;;;;6.65;3.67;;;;;;;;;;4861341;29;20396;-75
2023/07/21 13:45:20;;;;;;;6.85;3.85;;;;;;;;;;4867143;29;20045;-77
2023/07/21 13:48:05;;;;;;;5.80;3.90;;;;;;;;;;4861306;29;20050;-76
2023/07/21 13:50:51;;;;;;;8.85;4.03;;;;;;;;;;4867278;29;20049;-75
2023/07/21 13:53:36;;;;;;;9.85;4.20;;;;;;;;;;4867132;29;20057;-75
2023/07/21 13:56:21;;;;;;;7.38;4.40;;;;;;;;;;4866960;29;20480;-76
2023/07/21 13:59:06;;;;;;;7.15;4.13;;;;;;;;;;4860988;29;20054;-76
2023/07/21 14:01:52;;;;;;;13.00;4.35;;;;;;;;;;4867385;29;20500;-75
2023/07/21 14:04:38;;;;;;;10.52;4.40;;;;;;;;;;4862208;29;20050;-76
2023/07/21 14:07:23;;;;;;;8.43;4.15;;;;;;;;;;4866984;29;20045;-74
2023/07/21 14:10:09;;;;;;;9.73;4.68;;;;;;;;;;4867021;29;20472;-76
2023/07/21 14:12:55;;;;;;;11.52;4.15;;;;;;;;;;4860746;29;20049;-75
2023/07/21 14:15:41;;;;;;;8.13;4.00;;;;;;;;;;4863127;29;20050;-74
2023/07/21 14:18:26;;;;;;;10.57;4.47;;;;;;;;;;4870402;29;20050;-75
2023/07/21 14:21:12;;;;;;;6.07;3.90;;;;;;;;;;4864562;29;20045;-75
2023/07/21 14:23:58;;;;;;;7.25;3.78;;;;;;;;;;4869209;29;20049;-76
2023/07/21 14:26:43;;;;;;;6.85;3.83;;;;;;;;;;4863853;29;20045;-75
2023/07/21 14:29:29;;;;;;;9.80;4.20;;;;;;;;;;4870641;29;20049;-75
2023/07/21 14:32:14;;;;;;;8.57;3.72;;;;;;;;;;4870215;29;20053;-75
2023/07/21 14:35:00;;;;;;;7.03;3.90;;;;;;;;;;4870332;29;20049;-75
2023/07/21 14:37:45;;;;;;;10.50;4.30;;;;;;;;;;4870129;29;20053;-77
2023/07/21 14:40:31;;;;;;;8.32;3.90;;;;;;;;;;4870012;29;20053;-76
2023/07/21 14:43:18;;;;;;;8.07;3.85;;;;;;;;;;4870379;29;20049;-76
2023/07/21 14:46:03;;;;;;;6.40;3.78;;;;;;;;;;4870296;29;20487;-76
2023/07/21 14:48:49;;;;;;;6.35;4.18;;;;;;;;;;4870180;29;20049;-76
2023/07/21 14:51:37;;;;;;;8.45;4.43;;;;;;;;;;4869966;29;20049;-77
2023/07/21 14:54:23;;;;;;;10.55;4.40;;;;;;;;;;4869732;29;20045;-76
2023/07/21 14:57:10;;;;;;;8.95;4.32;;;;;;;;;;4869890;29;20049;-76
2023/07/21 14:59:55;;;;;;;12.55;4.57;;;;;;;;;;4869425;29;20041;-74
2023/07/21 15:02:41;;;;;;;7.55;4.03;;;;;;;;;;4869730;29;20053;-75
2023/07/21 15:05:26;;;;;;;9.70;4.43;;;;;;;;;;4869657;29;20053;-75
2023/07/21 15:08:12;;;;;;;9.07;3.75;;;;;;;;;;4869252;29;20045;-75
2023/07/21 15:10:57;;;;;;;7.88;4.40;;;;;;;;;;4869869;29;20045;-76
2023/07/21 15:13:43;;;;;;;7.28;4.20;;;;;;;;;;4863731;29;20045;-76
2023/07/21 15:16:29;;;;;;;9.75;4.70;;;;;;;;;;4869856;29;20472;-76
2023/07/21 15:19:14;;;;;;;9.68;4.00;;;;;;;;;;4863447;29;20041;-75
2023/07/21 15:22:00;;;;;;;10.43;4.38;;;;;;;;;;4863322;29;20053;-76
2023/07/21 15:24:45;;;;;;;6.90;3.90;;;;;;;;;;4869562;29;20050;-75
2023/07/21 15:27:31;;;;;;;8.30;3.97;;;;;;;;;;4863392;29;20041;-76
2023/07/21 15:30:17;;;;;;;10.02;3.90;;;;;;;;;;4863128;29;20050;-76
2023/07/21 15:33:03;;;;;;;9.57;4.47;;;;;;;;;;4869601;29;20057;-76
2023/07/21 15:35:48;;;;;;;10.82;4.22;;;;;;;;;;4869044;29;20041;-75
2023/07/21 15:38:33;;;;;;;9.93;4.50;;;;;;;;;;4862585;29;20492;-75
2023/07/21 15:41:20;;;;;;;11.63;4.13;;;;;;;;;;4868876;29;20049;-73
2023/07/21 15:44:06;;;;;;;10.30;4.35;;;;;;;;;;4862742;29;20046;-75
2023/07/21 15:46:52;;;;;;;9.82;4.45;;;;;;;;;;4868806;29;20049;-75
2023/07/21 15:49:43;;;;;;;9.93;4.53;;;;;;;;;;4862568;29;20041;-76
2023/07/21 15:52:28;;;;;;;10.65;4.10;;;;;;;;;;4869462;29;20045;-75
2023/07/21 15:55:15;;;;;;;7.60;4.15;;;;;;;;;;4868588;29;20045;-75
2023/07/21 15:58:00;;;;;;;8.70;4.43;;;;;;;;;;4868339;29;20045;-75
2023/07/21 16:00:55;;;;;;;7.78;4.25;;;;;;;;;;4862909;29;20045;-76
2023/07/21 16:03:41;;;;;;;15.27;4.47;;;;;;;;;;4862415;29;20061;-75
2023/07/21 16:06:26;;;;;;;9.07;5.05;;;;;;;;;;4867633;29;20049;-75
2023/07/21 16:09:12;;;;;;;7.60;4.60;;;;;;;;;;4862671;29;20045;-77
2023/07/21 16:11:59;;;;;;;9.43;4.40;;;;;;;;;;4862118;29;20514;-75
2023/07/21 16:14:44;;;;;;;9.13;4.70;;;;;;;;;;4868620;29;20049;-78
2023/07/21 16:17:30;;;;;;;11.75;5.25;;;;;;;;;;4868465;29;20471;-77
2023/07/21 16:20:15;;;;;;;11.20;5.05;;;;;;;;;;4868209;29;20084;-78
2023/07/21 16:23:01;;;;;;;15.15;4.78;;;;;;;;;;4868728;29;20049;-77
2023/07/21 16:25:46;;;;;;;10.35;4.72;;;;;;;;;;4868145;29;20045;-79
2023/07/21 16:28:32;;;;;;;12.00;5.20;;;;;;;;;;4862754;29;20050;-78
2023/07/21 16:31:18;;;;;;;9.25;5.57;;;;;;;;;;4868584;29;20045;-81
2023/07/21 16:34:04;;;;;;;13.75;6.53;;;;;;;;;;4862323;29;20049;-78
2023/07/21 16:36:50;;;;;;;8.73;4.80;;;;;;;;;;4867644;29;20045;-77
2023/07/21 16:39:35;;;;;;;7.85;4.88;;;;;;;;;;4861809;29;20053;-77
2023/07/21 16:42:21;;;;;;;11.48;5.93;;;;;;;;;;4862811;29;20045;-77